Observation data for Pampa on 06/14/2019      Previous  Date  Next       Current Mesonet Observations  Soil Data  Daily Summary Page  Observations in Plain Language
KPMS 140500Z 22012G17KT 20/12 A301 RMK A01 T02040123  RH  062%=      5-min Rain = 0
KPMS 140505Z 24011G16KT 20/13 A3012 RMK A01 T02010128  RH  065%=      5-min Rain = 0
KPMS 140510Z 24010KT 20/13 A3013 RMK A01 T01990133  RH  068%=      5-min Rain = 0
KPMS 140515Z 25009G14KT 20/14 A3013 RMK A01 T01990136  RH  070%=      5-min Rain = 0
KPMS 140520Z 23009G14KT 20/14 A3013 RMK A01 T01960141  RH  074%=      5-min Rain = 0
KPMS 140525Z 24010G16KT 19/15 A3014 RMK A01 T01920148  RH  079%=      5-min Rain = 0.01
KPMS 140530Z 23006KT 19/15 A3015 RMK A01 T01880151  RH  083%=      5-min Rain = 0.01
KPMS 140535Z 21008KT 18/15 A3015 RMK A01 T01830152  RH  086%=      5-min Rain = 0
KPMS 140540Z 23007G20KT 18/15 A3013 RMK A01 T01810148  RH  085%=      5-min Rain = 0.01
KPMS 140545Z 22007G12KT 18/15 A3012 RMK A01 T01790147  RH  086%=      5-min Rain = 0
KPMS 140550Z 21008G13KT 18/15 A3013 RMK A01 T01760146  RH  086%=      5-min Rain = 0
KPMS 140555Z 19009KT 17/15 A3012 RMK A01 T01740147  RH  088%=      5-min Rain = 0.01
KPMS 140600Z 17012G17KT 17/15 A301 RMK A01 T01710146  RH  089%=      5-min Rain = 0.01
KPMS 140605Z 16017KT 17/15 A3008 RMK A01 T01680146  RH  091%=      5-min Rain = 0.02
KPMS 140610Z 15021G27KT 17/15 A3004 RMK A01 T01650146  RH  093%=      5-min Rain = 0.01
KPMS 140615Z 14027G33KT 16/15 A2997 RMK A01 T01630145  RH  093%=      5-min Rain = 0.01
KPMS 140620Z 15019G30KT 17/14 A2998 RMK A01 T01650141  RH  090%=      5-min Rain = 0.01
KPMS 140625Z 14015G20KT 17/14 A30 RMK A01 T01680138  RH  086%=      5-min Rain = 0
KPMS 140630Z 16016G21KT 17/14 A3001 RMK A01 T01690139  RH  086%=      5-min Rain = 0
KPMS 140635Z 16016KT 17/14 A30 RMK A01 T01660141  RH  089%=      5-min Rain = 0
KPMS 140640Z 15015KT 17/14 A2999 RMK A01 T01660141  RH  089%=      5-min Rain = 0
KPMS 140645Z 14017G23KT 17/14 A2998 RMK A01 T01670139  RH  087%=      5-min Rain = 0
KPMS 140650Z 12018KT 17/14 A2996 RMK A01 T01690137  RH  085%=      5-min Rain = 0
KPMS 140655Z 14016G21KT 17/14 A2996 RMK A01 T01690137  RH  085%=      5-min Rain = 0
KPMS 140700Z 15017KT 17/14 A2996 RMK A01 T01660139  RH  088%=      5-min Rain = 0
KPMS 140705Z 15014G19KT 16/14 A2997 RMK A01 T01640140  RH  090%=      5-min Rain = 0
KPMS 140710Z 17011KT 16/14 A2999 RMK A01 T01640140  RH  089%=      5-min Rain = 0
KPMS 140715Z 17011KT 17/14 A30 RMK A01 T01660139  RH  088%=      5-min Rain = 0
KPMS 140720Z 15013G20KT 17/14 A30 RMK A01 T01660140  RH  088%=      5-min Rain = 0
KPMS 140725Z 16015KT 17/14 A2998 RMK A01 T01650140  RH  089%=      5-min Rain = 0
KPMS 140730Z 16016KT 17/14 A2999 RMK A01 T01650141  RH  089%=      5-min Rain = 0
KPMS 140735Z 17019KT 17/14 A2998 RMK A01 T01650141  RH  089%=      5-min Rain = 0
KPMS 140740Z 16018G23KT 17/14 A2999 RMK A01 T01650142  RH  090%=      5-min Rain = 0
KPMS 140745Z 17019G24KT 17/14 A2999 RMK A01 T01650143  RH  091%=      5-min Rain = 0
KPMS 140750Z 17019G24KT 17/14 A2999 RMK A01 T01650142  RH  090%=      5-min Rain = 0
KPMS 140755Z 17022G28KT 17/14 A2998 RMK A01 T01650141  RH  089%=      5-min Rain = 0
KPMS 140800Z 17022G29KT 17/14 A2997 RMK A01 T01660140  RH  089%=      5-min Rain = 0
KPMS 140805Z 17021G26KT 17/14 A2997 RMK A01 T01660140  RH  088%=      5-min Rain = 0
KPMS 140810Z 17023G30KT 17/14 A2997 RMK A01 T01660139  RH  087%=      5-min Rain = 0
KPMS 140815Z 17020G28KT 17/14 A2997 RMK A01 T01660138  RH  087%=      5-min Rain = 0
KPMS 140820Z 17022G30KT 17/14 A2996 RMK A01 T01650137  RH  087%=      5-min Rain = 0
KPMS 140825Z 17021G27KT 17/14 A2996 RMK A01 T01660136  RH  086%=      5-min Rain = 0
KPMS 140830Z 17019G26KT 17/14 A2995 RMK A01 T01650136  RH  086%=      5-min Rain = 0
KPMS 140835Z 17019G25KT 17/14 A2995 RMK A01 T01650136  RH  086%=      5-min Rain = 0
KPMS 140840Z 17018G25KT 17/14 A2995 RMK A01 T01650136  RH  087%=      5-min Rain = 0
KPMS 140845Z 16018G24KT 16/14 A2995 RMK A01 T01640137  RH  087%=      5-min Rain = 0
KPMS 140850Z 16016G21KT 16/14 A2995 RMK A01 T01640136  RH  088%=      5-min Rain = 0
KPMS 140855Z 16014KT 16/14 A2994 RMK A01 T01630136  RH  088%=      5-min Rain = 0
KPMS 140900Z 16014G19KT 16/14 A2994 RMK A01 T01620136  RH  088%=      5-min Rain = 0
KPMS 140905Z 16013KT 16/14 A2994 RMK A01 T01610135  RH  088%=      5-min Rain = 0
KPMS 140910Z 16012KT 16/14 A2994 RMK A01 T01600135  RH  088%=      5-min Rain = 0
KPMS 140915Z 16012G17KT 16/13 A2994 RMK A01 T01610134  RH  088%=      5-min Rain = 0
KPMS 140920Z 16015G20KT 16/13 A2994 RMK A01 T01640134  RH  086%=      5-min Rain = 0
KPMS 140925Z 16016G21KT 17/14 A2993 RMK A01 T01660136  RH  086%=      5-min Rain = 0
KPMS 140930Z 16014KT 16/14 A2993 RMK A01 T01640137  RH  087%=      5-min Rain = 0
KPMS 140935Z 16015KT 16/14 A2993 RMK A01 T01630137  RH  088%=      5-min Rain = 0
KPMS 140940Z 16014G19KT 16/14 A2993 RMK A01 T01630138  RH  089%=      5-min Rain = 0
KPMS 140945Z 16015G20KT 16/14 A2993 RMK A01 T01630139  RH  089%=      5-min Rain = 0
KPMS 140950Z 16016KT 16/14 A2993 RMK A01 T01640138  RH  089%=      5-min Rain = 0
KPMS 140955Z 16016KT 16/14 A2993 RMK A01 T01630138  RH  089%=      5-min Rain = 0
KPMS 141000Z 15016KT 16/14 A2992 RMK A01 T01620139  RH  090%=      5-min Rain = 0
KPMS 141005Z 16016KT 16/14 A2992 RMK A01 T01620139  RH  090%=      5-min Rain = 0
KPMS 141010Z 16016KT 16/14 A2992 RMK A01 T01610139  RH  090%=      5-min Rain = 0
KPMS 141015Z 16016KT 16/14 A2993 RMK A01 T01610140  RH  091%=      5-min Rain = 0
KPMS 141020Z 16017G22KT 16/14 A2993 RMK A01 T01610139  RH  090%=      5-min Rain = 0
KPMS 141025Z 16017KT 16/14 A2992 RMK A01 T01610139  RH  090%=      5-min Rain = 0
KPMS 141030Z 16016KT 16/14 A2992 RMK A01 T01600139  RH  091%=      5-min Rain = 0
KPMS 141035Z 16015KT 16/14 A2992 RMK A01 T01590139  RH  091%=      5-min Rain = 0
KPMS 141040Z 16015KT 16/14 A2992 RMK A01 T01600139  RH  091%=      5-min Rain = 0
KPMS 141045Z 16015KT 16/14 A2992 RMK A01 T01600139  RH  091%=      5-min Rain = 0
KPMS 141050Z 16016KT 16/14 A2992 RMK A01 T01620140  RH  090%=      5-min Rain = 0
KPMS 141055Z 16015KT 16/14 A2992 RMK A01 T01620140  RH  090%=      5-min Rain = 0
KPMS 141100Z 17015KT 16/14 A2992 RMK A01 T01630140  RH  090%=      5-min Rain = 0
KPMS 141105Z 17015KT 17/14 A2992 RMK A01 T01650140  RH  089%=      5-min Rain = 0
KPMS 141110Z 17015KT 17/14 A2992 RMK A01 T01660140  RH  088%=      5-min Rain = 0
KPMS 141115Z 16015KT 17/14 A2992 RMK A01 T01670140  RH  088%=      5-min Rain = 0
KPMS 141120Z 16016KT 17/14 A2991 RMK A01 T01680140  RH  087%=      5-min Rain = 0
KPMS 141125Z 16015G21KT 17/14 A2991 RMK A01 T01690140  RH  087%=      5-min Rain = 0
KPMS 141130Z 16016G21KT 17/14 A2991 RMK A01 T01690140  RH  086%=      5-min Rain = 0
KPMS 141135Z 16016KT 17/14 A2991 RMK A01 T01690139  RH  086%=      5-min Rain = 0
KPMS 141140Z 16017G22KT 17/14 A2991 RMK A01 T01700139  RH  085%=      5-min Rain = 0
KPMS 141145Z 16017G22KT 17/14 A2991 RMK A01 T01700139  RH  085%=      5-min Rain = 0
KPMS 141150Z 16018KT 17/14 A2991 RMK A01 T01700138  RH  085%=      5-min Rain = 0
KPMS 141155Z 16018KT 17/14 A2991 RMK A01 T01680138  RH  086%=      5-min Rain = 0
KPMS 141200Z 16018G25KT 17/14 A2991 RMK A01 T01670138  RH  087%=      5-min Rain = 0
KPMS 141205Z 16017G23KT 17/14 A2991 RMK A01 T01670138  RH  087%=      5-min Rain = 0
KPMS 141210Z 16017G22KT 17/14 A2991 RMK A01 T01670138  RH  087%=      5-min Rain = 0
KPMS 141215Z 16015G20KT 17/14 A2991 RMK A01 T01670139  RH  087%=      5-min Rain = 0
KPMS 141220Z 17016G23KT 17/14 A2991 RMK A01 T01680139  RH  086%=      5-min Rain = 0
KPMS 141225Z 17017G23KT 17/14 A2991 RMK A01 T01690138  RH  086%=      5-min Rain = 0
KPMS 141230Z 17016G21KT 17/14 A2991 RMK A01 T01700139  RH  086%=      5-min Rain = 0
KPMS 141235Z 17017G22KT 17/14 A2991 RMK A01 T01710139  RH  085%=      5-min Rain = 0
KPMS 141240Z 17017G22KT 17/14 A299 RMK A01 T01710140  RH  085%=      5-min Rain = 0
KPMS 141245Z 17017KT 17/14 A2989 RMK A01 T01720140  RH  085%=      5-min Rain = 0
KPMS 141250Z 17016KT 17/14 A2989 RMK A01 T01730141  RH  085%=      5-min Rain = 0
KPMS 141255Z 17014G19KT 17/14 A2989 RMK A01 T01730142  RH  085%=      5-min Rain = 0
KPMS 141300Z 17017G22KT 18/14 A2989 RMK A01 T01750141  RH  084%=      5-min Rain = 0
KPMS 141305Z 17018G24KT 18/14 A2989 RMK A01 T01770142  RH  083%=      5-min Rain = 0
KPMS 141310Z 18015G20KT 18/14 A2989 RMK A01 T01790143  RH  083%=      5-min Rain = 0
KPMS 141315Z 18015G21KT 18/14 A2989 RMK A01 T01810144  RH  082%=      5-min Rain = 0
KPMS 141320Z 18018KT 18/14 A2989 RMK A01 T01810143  RH  081%=      5-min Rain = 0
KPMS 141325Z 18017G22KT 18/14 A2989 RMK A01 T01830143  RH  081%=      5-min Rain = 0
KPMS 141330Z 18014G22KT 18/14 A299 RMK A01 T01820144  RH  082%=      5-min Rain = 0
KPMS 141335Z 18016G22KT 18/14 A299 RMK A01 T01830144  RH  081%=      5-min Rain = 0
KPMS 141340Z 18013G20KT 19/15 A299 RMK A01 T01850145  RH  081%=      5-min Rain = 0
KPMS 141345Z 18011G16KT 19/15 A2991 RMK A01 T01850146  RH  081%=      5-min Rain = 0
KPMS 141350Z 17014KT 19/15 A299 RMK A01 T01870145  RH  080%=      5-min Rain = 0
KPMS 141355Z 17014G19KT 19/15 A299 RMK A01 T01890146  RH  080%=      5-min Rain = 0
KPMS 141400Z 17014G19KT 19/15 A299 RMK A01 T01920147  RH  079%=      5-min Rain = 0
KPMS 141405Z 17015KT 19/15 A299 RMK A01 T01910147  RH  079%=      5-min Rain = 0
KPMS 141410Z 18015G22KT 19/15 A299 RMK A01 T01930149  RH  079%=      5-min Rain = 0
KPMS 141415Z 18016G23KT 20/15 A299 RMK A01 T01960149  RH  078%=      5-min Rain = 0
KPMS 141420Z 18017G23KT 20/15 A2989 RMK A01 T01950149  RH  078%=      5-min Rain = 0
KPMS 141425Z 18017G24KT 19/15 A2989 RMK A01 T01940148  RH  078%=      5-min Rain = 0
KPMS 141430Z 18016G22KT 19/15 A2989 RMK A01 T01920148  RH  079%=      5-min Rain = 0
KPMS 141435Z 18015G20KT 20/15 A299 RMK A01 T01960150  RH  079%=      5-min Rain = 0
KPMS 141440Z 18016G22KT 20/15 A299 RMK A01 T01970151  RH  078%=      5-min Rain = 0
KPMS 141445Z 18016G21KT 20/15 A299 RMK A01 T02000152  RH  078%=      5-min Rain = 0
KPMS 141450Z 18016G21KT 20/15 A299 RMK A01 T02040154  RH  076%=      5-min Rain = 0
KPMS 141455Z 18015G21KT 21/15 A299 RMK A01 T02060154  RH  076%=      5-min Rain = 0
KPMS 141500Z 18015KT 21/16 A299 RMK A01 T02070155  RH  075%=      5-min Rain = 0
KPMS 141505Z 18014G19KT 21/16 A299 RMK A01 T02090156  RH  075%=      5-min Rain = 0
KPMS 141510Z 18015KT 21/16 A299 RMK A01 T02110156  RH  074%=      5-min Rain = 0
KPMS 141515Z 18014G19KT 21/16 A2989 RMK A01 T02130157  RH  074%=      5-min Rain = 0
KPMS 141520Z 18015KT 21/16 A2989 RMK A01 T02130157  RH  073%=      5-min Rain = 0
KPMS 141525Z 18013G18KT 22/16 A2989 RMK A01 T02170159  RH  073%=      5-min Rain = 0
KPMS 141530Z 19014G19KT 22/16 A2989 RMK A01 T02170159  RH  073%=      5-min Rain = 0
KPMS 141535Z 18014KT 22/16 A2989 RMK A01 T02180160  RH  073%=      5-min Rain = 0
KPMS 141540Z 19014G19KT 22/16 A2989 RMK A01 T02210162  RH  073%=      5-min Rain = 0
KPMS 141545Z 19016G21KT 22/16 A2989 RMK A01 T02230162  RH  072%=      5-min Rain = 0
KPMS 141550Z 20015G22KT 22/16 A2989 RMK A01 T02220161  RH  072%=      5-min Rain = 0
KPMS 141555Z 19013KT 23/16 A2989 RMK A01 T02260164  RH  071%=      5-min Rain = 0
KPMS 141600Z 19012KT 23/17 A2989 RMK A01 T02300166  RH  071%=      5-min Rain = 0
KPMS 141605Z 19013KT 23/17 A2988 RMK A01 T02310167  RH  071%=      5-min Rain = 0
KPMS 141610Z 19013G18KT 23/17 A2988 RMK A01 T02330167  RH  070%=      5-min Rain = 0
KPMS 141615Z 19011G16KT 23/17 A2988 RMK A01 T02340168  RH  070%=      5-min Rain = 0
KPMS 141620Z 19013G18KT 23/17 A2988 RMK A01 T02320167  RH  070%=      5-min Rain = 0
KPMS 141625Z 18012KT 24/17 A2988 RMK A01 T02370172  RH  070%=      5-min Rain = 0
KPMS 141630Z 18011KT 24/17 A2988 RMK A01 T02380171  RH  070%=      5-min Rain = 0
KPMS 141635Z 18011KT 24/17 A2988 RMK A01 T02380172  RH  070%=      5-min Rain = 0
KPMS 141640Z 18011G16KT 25/18 A2987 RMK A01 T02490178  RH  068%=      5-min Rain = 0
KPMS 141645Z 20012G18KT 26/17 A2988 RMK A01 T02560174  RH  064%=      5-min Rain = 0
KPMS 141650Z 18011G18KT 26/18 A2987 RMK A01 T02590177  RH  064%=      5-min Rain = 0
KPMS 141655Z 20012G17KT 26/17 A2987 RMK A01 T02600173  RH  062%=      5-min Rain = 0
KPMS 141700Z 20012G18KT 26/17 A2987 RMK A01 T02620172  RH  061%=      5-min Rain = 0
KPMS 141705Z 20011G17KT 26/17 A2987 RMK A01 T02600172  RH  061%=      5-min Rain = 0
KPMS 141710Z 17011KT 27/18 A2987 RMK A01 T02650180  RH  063%=      5-min Rain = 0
KPMS 141715Z 19011G18KT 27/18 A2986 RMK A01 T02710179  RH  060%=      5-min Rain = 0
KPMS 141720Z 18012G17KT 27/18 A2986 RMK A01 T02710181  RH  061%=      5-min Rain = 0
KPMS 141725Z 18011G16KT 27/18 A2986 RMK A01 T02740182  RH  060%=      5-min Rain = 0
KPMS 141730Z 19011G19KT 27/18 A2986 RMK A01 T02730184  RH  061%=      5-min Rain = 0
KPMS 141735Z 21011G23KT 28/18 A2986 RMK A01 T02790179  RH  058%=      5-min Rain = 0
KPMS 141740Z 18011G16KT 28/19 A2986 RMK A01 T02760185  RH  061%=      5-min Rain = 0
KPMS 141745Z 18013KT 28/18 A2986 RMK A01 T02790182  RH  059%=      5-min Rain = 0
KPMS 141750Z 17013G20KT 28/18 A2986 RMK A01 T02790179  RH  057%=      5-min Rain = 0
KPMS 141755Z 17013G18KT 28/18 A2986 RMK A01 T02800184  RH  059%=      5-min Rain = 0
KPMS 141800Z 18011G17KT 28/18 A2986 RMK A01 T02790182  RH  059%=      5-min Rain = 0
KPMS 141805Z 18012G17KT 28/18 A2985 RMK A01 T02840179  RH  056%=      5-min Rain = 0
KPMS 141810Z 18010G16KT 29/18 A2985 RMK A01 T02860176  RH  054%=      5-min Rain = 0
KPMS 141815Z 18013KT 29/18 A2985 RMK A01 T02850179  RH  055%=      5-min Rain = 0
KPMS 141820Z 18012G17KT 29/18 A2985 RMK A01 T02860183  RH  057%=      5-min Rain = 0
KPMS 141825Z 18011G16KT 29/18 A2985 RMK A01 T02860181  RH  056%=      5-min Rain = 0
KPMS 141830Z 20013KT 29/15 A2985 RMK A01 T02900146  RH  043%=      5-min Rain = 0
KPMS 141835Z 21012G17KT 29/15 A2985 RMK A01 T02910145  RH  043%=      5-min Rain = 0
KPMS 141840Z 19011KT 29/14 A2985 RMK A01 T02900144  RH  043%=      5-min Rain = 0
KPMS 141845Z 21010KT 29/14 A2985 RMK A01 T02900144  RH  043%=      5-min Rain = 0
KPMS 141850Z 21008G13KT 29/15 A2985 RMK A01 T02930148  RH  043%=      5-min Rain = 0
KPMS 141855Z 18010KT 29/16 A2985 RMK A01 T02930161  RH  047%=      5-min Rain = 0
KPMS 141900Z 17011G16KT 29/18 A2984 RMK A01 T02880180  RH  055%=      5-min Rain = 0
KPMS 141905Z 16011G16KT 29/18 A2984 RMK A01 T02900177  RH  053%=      5-min Rain = 0
KPMS 141910Z 19012KT 29/16 A2983 RMK A01 T02930156  RH  046%=      5-min Rain = 0
KPMS 141915Z 18010KT 29/16 A2983 RMK A01 T02940157  RH  045%=      5-min Rain = 0
KPMS 141920Z 18011G18KT 29/17 A2983 RMK A01 T02940166  RH  048%=      5-min Rain = 0
KPMS 141925Z 18012KT 30/17 A2983 RMK A01 T02950165  RH  048%=      5-min Rain = 0
KPMS 141930Z 17012KT 29/17 A2982 RMK A01 T02940172  RH  050%=      5-min Rain = 0
KPMS 141935Z 17012KT 30/17 A2982 RMK A01 T02960170  RH  049%=      5-min Rain = 0
KPMS 141940Z 17012KT 30/17 A2982 RMK A01 T03000174  RH  049%=      5-min Rain = 0
KPMS 141945Z 16013KT 30/18 A2982 RMK A01 T03040176  RH  049%=      5-min Rain = 0
KPMS 141950Z 17014KT 31/17 A2982 RMK A01 T03090173  RH  047%=      5-min Rain = 0
KPMS 141955Z 17016KT 31/17 A2982 RMK A01 T03060171  RH  047%=      5-min Rain = 0
KPMS 142000Z 18015KT 30/16 A2982 RMK A01 T03030164  RH  045%=      5-min Rain = 0
KPMS 142005Z 17016G21KT 30/16 A2982 RMK A01 T03030162  RH  045%=      5-min Rain = 0
KPMS 142010Z 17016G21KT 31/16 A2982 RMK A01 T03050162  RH  044%=      5-min Rain = 0
KPMS 142015Z 17017G24KT 31/16 A2981 RMK A01 T03080161  RH  043%=      5-min Rain = 0
KPMS 142020Z 17016G21KT 31/16 A2981 RMK A01 T03120164  RH  043%=      5-min Rain = 0
KPMS 142025Z 16015G20KT 31/18 A2981 RMK A01 T03120177  RH  047%=      5-min Rain = 0
KPMS 142030Z 16016G22KT 31/18 A2981 RMK A01 T03130177  RH  047%=      5-min Rain = 0
KPMS 142035Z 15017G22KT 31/19 A2981 RMK A01 T03110186  RH  050%=      5-min Rain = 0
KPMS 142040Z 15015G20KT 31/19 A2981 RMK A01 T03090185  RH  050%=      5-min Rain = 0
KPMS 142045Z 16014G19KT 31/19 A298 RMK A01 T03140189  RH  050%=      5-min Rain = 0
KPMS 142050Z 17016KT 32/17 A298 RMK A01 T03170166  RH  042%=      5-min Rain = 0
KPMS 142055Z 17017G25KT 32/17 A298 RMK A01 T03170165  RH  042%=      5-min Rain = 0
KPMS 142100Z 18014G22KT 32/16 A298 RMK A01 T03210164  RH  041%=      5-min Rain = 0
KPMS 142105Z 18013G18KT 32/16 A298 RMK A01 T03230161  RH  040%=      5-min Rain = 0
KPMS 142110Z 17014G20KT 32/15 A2979 RMK A01 T03240154  RH  038%=      5-min Rain = 0
KPMS 142115Z 18016G21KT 33/13 A2979 RMK A01 T03270134  RH  032%=      5-min Rain = 0
KPMS 142120Z 19013KT 33/13 A2979 RMK A01 T03290134  RH  032%=      5-min Rain = 0
KPMS 142125Z 20013G18KT 33/14 A2979 RMK A01 T03340137  RH  032%=      5-min Rain = 0
KPMS 142130Z 20014G19KT 34/14 A2979 RMK A01 T03370136  RH  031%=      5-min Rain = 0
KPMS 142135Z 20013G18KT 34/14 A2979 RMK A01 T03390137  RH  031%=      5-min Rain = 0
KPMS 142140Z 19014G19KT 34/13 A2979 RMK A01 T03380132  RH  030%=      5-min Rain = 0
KPMS 142145Z 18014G20KT 33/13 A2979 RMK A01 T03330131  RH  031%=      5-min Rain = 0
KPMS 142150Z 19016G22KT 33/14 A2979 RMK A01 T03320137  RH  032%=      5-min Rain = 0
KPMS 142155Z 18016KT 33/15 A2978 RMK A01 T03310149  RH  035%=      5-min Rain = 0
KPMS 142200Z 17017G22KT 33/15 A2978 RMK A01 T03290151  RH  036%=      5-min Rain = 0
KPMS 142205Z 17017G22KT 33/15 A2978 RMK A01 T03300151  RH  036%=      5-min Rain = 0
KPMS 142210Z 17018G24KT 33/15 A2977 RMK A01 T03280153  RH  037%=      5-min Rain = 0
KPMS 142215Z 17019G25KT 33/16 A2977 RMK A01 T03260160  RH  039%=      5-min Rain = 0
KPMS 142220Z 16021KT 32/16 A2977 RMK A01 T03240163  RH  040%=      5-min Rain = 0
KPMS 142225Z 17018G25KT 32/16 A2977 RMK A01 T03240164  RH  040%=      5-min Rain = 0
KPMS 142230Z 16019KT 32/16 A2977 RMK A01 T03220162  RH  040%=      5-min Rain = 0
KPMS 142235Z 16019G24KT 32/17 A2976 RMK A01 T03190168  RH  042%=      5-min Rain = 0
KPMS 142240Z 16017G22KT 32/17 A2977 RMK A01 T03210170  RH  043%=      5-min Rain = 0
KPMS 142245Z 16018G24KT 32/17 A2976 RMK A01 T03180168  RH  043%=      5-min Rain = 0
KPMS 142250Z 15018KT 32/17 A2976 RMK A01 T03170168  RH  043%=      5-min Rain = 0
KPMS 142255Z 16016G21KT 32/18 A2976 RMK A01 T03150175  RH  046%=      5-min Rain = 0
KPMS 142300Z 15018G24KT 31/18 A2976 RMK A01 T03140181  RH  048%=      5-min Rain = 0
KPMS 142305Z 15018KT 31/18 A2976 RMK A01 T03120181  RH  048%=      5-min Rain = 0
KPMS 142310Z 16015G20KT 31/18 A2976 RMK A01 T03110183  RH  049%=      5-min Rain = 0
KPMS 142315Z 16018G23KT 31/18 A2976 RMK A01 T03120177  RH  047%=      5-min Rain = 0
KPMS 142320Z 17015G20KT 31/18 A2976 RMK A01 T03140180  RH  047%=      5-min Rain = 0
KPMS 142325Z 17017G23KT 32/17 A2976 RMK A01 T03160167  RH  043%=      5-min Rain = 0
KPMS 142330Z 17017G23KT 32/16 A2976 RMK A01 T03160162  RH  041%=      5-min Rain = 0
KPMS 142335Z 17018KT 32/16 A2976 RMK A01 T03180160  RH  040%=      5-min Rain = 0
KPMS 142340Z 17018KT 32/16 A2976 RMK A01 T03180156  RH  039%=      5-min Rain = 0
KPMS 142345Z 17016KT 32/15 A2975 RMK A01 T03170152  RH  039%=      5-min Rain = 0
KPMS 142350Z 16017G22KT 31/15 A2975 RMK A01 T03100146  RH  038%=      5-min Rain = 0
KPMS 142355Z 17015KT 31/15 A2975 RMK A01 T03070148  RH  040%=      5-min Rain = 0
KPMS 150000Z 16015G20KT 30/15 A2975 RMK A01 T03030150  RH  041%=      5-min Rain = 0
KPMS 150005Z 16012KT 30/16 A2975 RMK A01 T02990157  RH  044%=      5-min Rain = 0
KPMS 150010Z 16014G19KT 30/16 A2975 RMK A01 T02960162  RH  047%=      5-min Rain = 0
KPMS 150015Z 15013KT 29/17 A2974 RMK A01 T02940165  RH  048%=      5-min Rain = 0
KPMS 150020Z 15013KT 29/17 A2974 RMK A01 T02920166  RH  049%=      5-min Rain = 0
KPMS 150025Z 15013KT 29/17 A2974 RMK A01 T02900167  RH  050%=      5-min Rain = 0
KPMS 150030Z 15011KT 29/17 A2974 RMK A01 T02870172  RH  053%=      5-min Rain = 0
KPMS 150035Z 14012KT 28/17 A2974 RMK A01 T02840174  RH  054%=      5-min Rain = 0
KPMS 150040Z 15012KT 28/17 A2974 RMK A01 T02830174  RH  054%=      5-min Rain = 0
KPMS 150045Z 15011KT 28/17 A2974 RMK A01 T02820173  RH  054%=      5-min Rain = 0
KPMS 150050Z 15013KT 29/17 A2974 RMK A01 T02850165  RH  051%=      5-min Rain = 0
KPMS 150055Z 15011KT 29/17 A2974 RMK A01 T02850165  RH  051%=      5-min Rain = 0
KPMS 150100Z 15010KT 28/17 A2974 RMK A01 T02810165  RH  052%=      5-min Rain = 0
KPMS 150105Z 16010KT 28/16 A2974 RMK A01 T02790163  RH  052%=      5-min Rain = 0
KPMS 150110Z 15011KT 28/16 A2974 RMK A01 T02770162  RH  052%=      5-min Rain = 0
KPMS 150115Z 16011KT 28/16 A2974 RMK A01 T02760160  RH  052%=      5-min Rain = 0
KPMS 150120Z 16011KT 27/16 A2974 RMK A01 T02740159  RH  052%=      5-min Rain = 0
KPMS 150125Z 16011KT 27/16 A2973 RMK A01 T02700157  RH  052%=      5-min Rain = 0
KPMS 150130Z 16010KT 27/16 A2973 RMK A01 T02670155  RH  053%=      5-min Rain = 0
KPMS 150135Z 16011KT 27/16 A2973 RMK A01 T02650155  RH  053%=      5-min Rain = 0
KPMS 150140Z 16010KT 26/16 A2973 RMK A01 T02630155  RH  054%=      5-min Rain = 0
KPMS 150145Z 16011KT 26/15 A2973 RMK A01 T02610153  RH  054%=      5-min Rain = 0
KPMS 150150Z 16010KT 26/15 A2973 RMK A01 T02580152  RH  054%=      5-min Rain = 0
KPMS 150155Z 16011KT 26/15 A2973 RMK A01 T02580147  RH  052%=      5-min Rain = 0
KPMS 150200Z 16011KT 26/14 A2973 RMK A01 T02560144  RH  052%=      5-min Rain = 0
KPMS 150205Z 16011KT 26/14 A2973 RMK A01 T02550141  RH  051%=      5-min Rain = 0
KPMS 150210Z 16011KT 25/14 A2973 RMK A01 T02520142  RH  052%=      5-min Rain = 0
KPMS 150215Z 16011KT 25/14 A2973 RMK A01 T02520141  RH  052%=      5-min Rain = 0
KPMS 150220Z 15011KT 25/14 A2973 RMK A01 T02490142  RH  054%=      5-min Rain = 0
KPMS 150225Z 16012G17KT 25/14 A2973 RMK A01 T02500141  RH  053%=      5-min Rain = 0
KPMS 150230Z 15013KT 25/14 A2973 RMK A01 T02530142  RH  052%=      5-min Rain = 0
KPMS 150235Z 16014KT 25/14 A2973 RMK A01 T02530144  RH  053%=      5-min Rain = 0
KPMS 150240Z 16015G21KT 26/15 A2973 RMK A01 T02550147  RH  053%=      5-min Rain = 0
KPMS 150245Z 16016G21KT 26/15 A2973 RMK A01 T02590152  RH  054%=      5-min Rain = 0
KPMS 150250Z 16018G23KT 26/16 A2973 RMK A01 T02620156  RH  055%=      5-min Rain = 0
KPMS 150255Z 17018G24KT 26/16 A2973 RMK A01 T02620160  RH  056%=      5-min Rain = 0
KPMS 150300Z 17017G22KT 26/16 A2973 RMK A01 T02640162  RH  056%=      5-min Rain = 0
KPMS 150305Z 17019G26KT 27/16 A2973 RMK A01 T02650163  RH  056%=      5-min Rain = 0
KPMS 150310Z 17019G25KT 27/16 A2974 RMK A01 T02650164  RH  056%=      5-min Rain = 0
KPMS 150315Z 17018G25KT 26/16 A2974 RMK A01 T02640164  RH  057%=      5-min Rain = 0
KPMS 150320Z 17019G27KT 27/16 A2974 RMK A01 T02650164  RH  056%=      5-min Rain = 0
KPMS 150325Z 17019G27KT 27/16 A2974 RMK A01 T02650164  RH  057%=      5-min Rain = 0
KPMS 150330Z 17019G26KT 26/16 A2974 RMK A01 T02630164  RH  057%=      5-min Rain = 0
KPMS 150335Z 17020G26KT 26/16 A2974 RMK A01 T02630164  RH  057%=      5-min Rain = 0
KPMS 150340Z 17020G27KT 26/16 A2974 RMK A01 T02630163  RH  057%=      5-min Rain = 0
KPMS 150345Z 17021G26KT 26/16 A2974 RMK A01 T02630163  RH  057%=      5-min Rain = 0
KPMS 150350Z 17020G28KT 26/16 A2974 RMK A01 T02620163  RH  057%=      5-min Rain = 0
KPMS 150355Z 17021G29KT 26/16 A2974 RMK A01 T02620163  RH  057%=      5-min Rain = 0
KPMS 150400Z 17021G28KT 26/16 A2974 RMK A01 T02620162  RH  057%=      5-min Rain = 0
KPMS 150405Z 17017G24KT 26/16 A2974 RMK A01 T02600162  RH  058%=      5-min Rain = 0
KPMS 150410Z 17019G25KT 26/16 A2974 RMK A01 T02590161  RH  057%=      5-min Rain = 0
KPMS 150415Z 17019G24KT 26/16 A2974 RMK A01 T02590160  RH  057%=      5-min Rain = 0
KPMS 150420Z 17019G26KT 26/16 A2974 RMK A01 T02580161  RH  058%=      5-min Rain = 0
KPMS 150425Z 17018G26KT 26/16 A2975 RMK A01 T02570161  RH  058%=      5-min Rain = 0
KPMS 150430Z 17018G27KT 26/16 A2975 RMK A01 T02560162  RH  059%=      5-min Rain = 0
KPMS 150435Z 17020G31KT 25/16 A2974 RMK A01 T02540162  RH  060%=      5-min Rain = 0
KPMS 150440Z 18016G24KT 25/16 A2975 RMK A01 T02530162  RH  060%=      5-min Rain = 0
KPMS 150445Z 18017G22KT 25/16 A2975 RMK A01 T02520162  RH  060%=      5-min Rain = 0
KPMS 150450Z 18017G22KT 25/16 A2976 RMK A01 T02490162  RH  061%=      5-min Rain = 0
KPMS 150455Z 19016G22KT 25/16 A2976 RMK A01 T02490161  RH  061%=      5-min Rain = 0

Page generated in 0.0295 seconds.